Time;durP1;ratioP1;P1;durP2;ratioP2;P2;SDS_P1;SDS_P2;PMS_P1;PMS_P2;Temp;Humidity;BMP_temperature;BMP_pressure;BME280_temperature;BME280_humidity;BME280_pressure;Samples;Min_cycle;Max_cycle;Signal;HPM_P1;HPM_P2
2021/10/10 00:02:25;0.00;0.00;0.62;0.00;0.00;0.62;2.50;2.20;;;27.40;27.50;;;;;;2256740;61;20363;-68
2021/10/10 00:05:10;0.00;0.00;0.62;0.00;0.00;0.62;3.60;2.10;;;27.40;27.60;;;;;;2254578;61;20359;-67
2021/10/10 00:07:55;0.00;0.00;0.62;0.00;0.00;0.62;2.33;1.97;;;27.40;27.60;;;;;;2257191;61;20434;-67
2021/10/10 00:10:39;0.00;0.00;0.62;0.00;0.00;0.62;3.43;2.00;;;27.40;27.60;;;;;;2257136;61;20366;-67
2021/10/10 00:13:24;0.00;0.00;0.62;0.00;0.00;0.62;3.50;2.10;;;27.40;27.60;;;;;;2257532;61;20391;-67
2021/10/10 00:16:09;0.00;0.00;0.62;0.00;0.00;0.62;2.40;2.10;;;27.40;27.60;;;;;;2256961;61;20438;-67
2021/10/10 00:18:54;0.00;0.00;0.62;0.00;0.00;0.62;2.40;2.20;;;27.40;27.60;;;;;;2257595;61;20457;-66
2021/10/10 00:21:38;0.00;0.00;0.62;0.00;0.00;0.62;2.47;2.07;;;27.30;27.60;;;;;;2257334;61;20390;-68
2021/10/10 00:24:23;0.00;0.00;0.62;0.00;0.00;0.62;2.47;1.80;;;27.40;27.70;;;;;;2256726;61;20359;-67
2021/10/10 00:27:07;0.00;0.00;0.62;0.00;0.00;0.62;2.00;1.67;;;27.30;27.60;;;;;;2257487;61;20399;-66
2021/10/10 00:29:52;0.00;0.00;0.62;0.00;0.00;0.62;2.30;2.10;;;27.40;27.70;;;;;;2257367;61;20387;-67
2021/10/10 00:32:38;0.00;0.00;0.62;0.00;0.00;0.62;2.50;1.83;;;27.30;27.60;;;;;;2256838;61;20390;-68
2021/10/10 00:35:23;0.00;0.00;0.62;0.00;0.00;0.62;2.30;1.90;;;27.30;27.70;;;;;;2257410;61;20375;-68
2021/10/10 00:38:08;0.00;0.00;0.62;0.00;0.00;0.62;2.20;1.57;;;27.30;27.70;;;;;;2256988;61;20378;-68
2021/10/10 00:40:52;0.00;0.00;0.62;0.00;0.00;0.62;2.03;1.70;;;27.30;27.70;;;;;;2257659;61;20359;-67
2021/10/10 00:43:37;0.00;0.00;0.62;0.00;0.00;0.62;2.10;1.80;;;27.30;27.70;;;;;;2257265;61;20358;-67
2021/10/10 00:46:21;0.00;0.00;0.62;0.00;0.00;0.62;2.77;1.80;;;27.30;27.70;;;;;;2256647;61;20406;-67
2021/10/10 00:49:07;0.00;0.00;0.62;0.00;0.00;0.62;2.10;1.83;;;27.30;27.70;;;;;;2257486;61;20794;-68
2021/10/10 00:51:54;0.00;0.00;0.62;0.00;0.00;0.62;2.20;1.90;;;27.30;27.70;;;;;;2257697;61;20366;-67
2021/10/10 00:54:40;0.00;0.00;0.62;0.00;0.00;0.62;2.23;1.80;;;27.20;27.70;;;;;;2257504;61;20410;-67
2021/10/10 00:57:25;0.00;0.00;0.62;0.00;0.00;0.62;2.17;1.97;;;27.20;27.70;;;;;;2257897;61;20394;-67
2021/10/10 01:00:12;0.00;0.00;0.62;0.00;0.00;0.62;2.47;1.90;;;27.20;27.70;;;;;;2257621;61;20402;-67
2021/10/10 01:02:58;0.00;0.00;0.62;0.00;0.00;0.62;2.07;1.80;;;27.20;27.70;;;;;;2257927;61;20698;-67
2021/10/10 01:05:44;0.00;0.00;0.62;0.00;0.00;0.62;2.90;1.90;;;27.20;27.70;;;;;;2257990;61;20382;-67
2021/10/10 01:08:29;0.00;0.00;0.62;0.00;0.00;0.62;1.93;1.67;;;27.20;27.70;;;;;;2257292;61;20403;-67
2021/10/10 01:11:14;0.00;0.00;0.62;0.00;0.00;0.62;1.63;1.53;;;27.20;27.70;;;;;;2258201;61;20346;-68
2021/10/10 01:14:00;0.00;0.00;0.62;0.00;0.00;0.62;2.73;1.73;;;27.20;27.70;;;;;;2258107;61;20367;-67
2021/10/10 01:16:44;0.00;0.00;0.62;0.00;0.00;0.62;2.37;2.00;;;27.20;27.70;;;;;;2257164;61;20399;-67
2021/10/10 01:19:30;0.00;0.00;0.62;0.00;0.00;0.62;2.27;1.80;;;27.20;27.70;;;;;;2258033;61;20366;-68
2021/10/10 01:22:16;0.00;0.00;0.62;0.00;0.00;0.62;2.47;2.00;;;27.20;27.70;;;;;;2257721;61;20356;-67
2021/10/10 01:25:00;0.00;0.00;0.62;0.00;0.00;0.62;2.40;1.70;;;27.20;27.70;;;;;;2257727;61;20367;-67
2021/10/10 01:27:45;0.00;0.00;0.62;0.00;0.00;0.62;2.00;1.70;;;27.20;27.70;;;;;;2254650;61;20778;-68
2021/10/10 01:30:30;0.00;0.00;0.62;0.00;0.00;0.62;2.10;1.57;;;27.20;27.80;;;;;;2257371;61;20398;-67
2021/10/10 01:33:15;0.00;0.00;0.62;0.00;0.00;0.62;2.20;1.63;;;27.20;27.80;;;;;;2258065;61;20394;-67
2021/10/10 01:36:00;0.00;0.00;0.62;0.00;0.00;0.62;2.30;1.77;;;27.10;27.70;;;;;;2257787;61;20750;-66
2021/10/10 01:38:45;0.00;0.00;0.62;0.00;0.00;0.62;2.97;2.00;;;27.10;27.70;;;;;;2257091;61;20374;-66
2021/10/10 01:41:30;0.00;0.00;0.62;0.00;0.00;0.62;3.30;2.03;;;27.20;27.70;;;;;;2258130;61;20434;-66
2021/10/10 01:44:16;0.00;0.00;0.62;0.00;0.00;0.62;2.87;2.30;;;27.20;27.70;;;;;;2257877;61;20435;-66
2021/10/10 01:47:01;0.00;0.00;0.62;0.00;0.00;0.62;2.97;2.70;;;27.10;27.50;;;;;;2257517;61;20350;-66
2021/10/10 01:49:46;0.00;0.00;0.62;0.00;0.00;0.62;3.70;3.30;;;27.10;27.40;;;;;;2257949;61;20590;-66
2021/10/10 01:52:30;0.00;0.00;0.62;0.00;0.00;0.62;3.53;2.90;;;27.10;27.30;;;;;;2256966;61;20762;-66
2021/10/10 01:55:16;0.00;0.00;0.62;0.00;0.00;0.62;3.97;3.57;;;27.10;27.30;;;;;;2258010;61;20735;-66
2021/10/10 01:58:01;0.00;0.00;0.62;0.00;0.00;0.62;3.60;3.10;;;27.10;27.20;;;;;;2257735;61;20618;-66
2021/10/10 02:00:46;0.00;0.00;0.62;0.00;0.00;0.62;4.03;3.67;;;27.00;27.10;;;;;;2256985;61;20757;-66
2021/10/10 02:03:30;0.00;0.00;0.62;0.00;0.00;0.62;4.43;3.10;;;27.00;27.00;;;;;;2257899;61;20431;-66
2021/10/10 02:06:15;0.00;0.00;0.62;0.00;0.00;0.62;3.83;3.43;;;27.00;27.00;;;;;;2257752;61;20347;-66
2021/10/10 02:08:59;0.00;0.00;0.62;0.00;0.00;0.62;4.00;3.00;;;27.00;26.90;;;;;;2257187;61;20393;-66
2021/10/10 02:11:45;0.00;0.00;0.62;0.00;0.00;0.62;4.43;3.83;;;27.00;26.90;;;;;;2258054;61;20440;-66
2021/10/10 02:14:29;0.00;0.00;0.62;0.00;0.00;0.62;4.70;3.67;;;26.90;26.80;;;;;;2257396;61;20370;-66
2021/10/10 02:17:14;0.00;0.00;0.62;0.00;0.00;0.62;4.30;3.90;;;26.80;26.70;;;;;;2257887;61;20418;-66
2021/10/10 02:19:58;0.00;0.00;0.62;0.00;0.00;0.62;5.00;3.67;;;26.80;26.70;;;;;;2257765;61;20414;-66
2021/10/10 02:22:43;0.00;0.00;0.62;0.00;0.00;0.62;4.70;4.27;;;26.80;26.70;;;;;;2257058;61;20362;-66
2021/10/10 02:25:29;0.00;0.00;0.62;0.00;0.00;0.62;4.10;3.70;;;26.80;26.70;;;;;;2254899;61;20362;-66
2021/10/10 02:28:15;0.00;0.00;0.62;0.00;0.00;0.62;4.77;3.77;;;26.70;26.60;;;;;;2254433;61;20459;-67
2021/10/10 02:30:59;0.00;0.00;0.62;0.00;0.00;0.62;5.20;4.30;;;26.70;26.60;;;;;;2257216;61;20444;-66
2021/10/10 02:33:44;0.00;0.00;0.62;0.00;0.00;0.62;4.60;4.20;;;26.70;26.60;;;;;;2257922;61;20394;-66
2021/10/10 02:36:29;0.00;0.00;0.62;0.00;0.00;0.62;4.87;4.47;;;26.70;26.60;;;;;;2257079;61;20402;-67
2021/10/10 02:39:13;0.00;0.00;0.62;0.00;0.00;0.62;4.60;4.20;;;26.60;26.50;;;;;;2257859;61;20358;-66
2021/10/10 02:41:58;0.00;0.00;0.62;0.00;0.00;0.62;4.90;4.33;;;26.60;26.50;;;;;;2257643;61;20370;-66
2021/10/10 02:44:44;0.00;0.00;0.62;0.00;0.00;0.62;4.50;4.10;;;26.60;26.50;;;;;;2256790;61;20355;-66
2021/10/10 02:47:28;0.00;0.00;0.62;0.00;0.00;0.62;5.57;4.20;;;26.50;26.50;;;;;;2257923;61;20765;-66
2021/10/10 02:50:13;0.00;0.00;0.62;0.00;0.00;0.62;5.10;4.60;;;26.50;26.50;;;;;;2257661;61;20362;-66
2021/10/10 02:52:58;0.00;0.00;0.62;0.00;0.00;0.62;4.60;4.10;;;26.50;26.50;;;;;;2256952;61;20765;-66
2021/10/10 02:55:43;0.00;0.00;0.62;0.00;0.00;0.62;5.00;4.30;;;26.40;26.40;;;;;;2257805;61;20358;-66
2021/10/10 02:58:29;0.00;0.00;0.62;0.00;0.00;0.62;4.40;4.00;;;26.40;26.40;;;;;;2257096;61;20475;-66
2021/10/10 03:01:15;0.00;0.00;0.62;0.00;0.00;0.62;5.10;4.60;;;26.40;26.40;;;;;;2257594;61;20394;-66
2021/10/10 03:04:00;0.00;0.00;0.62;0.00;0.00;0.62;5.63;4.57;;;26.30;26.40;;;;;;2257586;61;20370;-66
2021/10/10 03:06:44;0.00;0.00;0.62;0.00;0.00;0.62;6.33;5.07;;;26.30;26.40;;;;;;2256862;61;20399;-66
2021/10/10 03:09:29;0.00;0.00;0.62;0.00;0.00;0.62;5.17;4.67;;;26.30;26.40;;;;;;2257736;61;20379;-66
2021/10/10 03:12:14;0.00;0.00;0.62;0.00;0.00;0.62;5.23;4.73;;;26.30;26.40;;;;;;2257504;61;20354;-66
2021/10/10 03:14:58;0.00;0.00;0.62;0.00;0.00;0.62;6.00;5.40;;;26.20;26.30;;;;;;2257000;61;20413;-66
2021/10/10 03:17:44;0.00;0.00;0.62;0.00;0.00;0.62;4.80;4.27;;;26.20;26.30;;;;;;2257679;61;20391;-66
2021/10/10 03:20:28;0.00;0.00;0.62;0.00;0.00;0.62;5.10;4.43;;;26.20;26.20;;;;;;2257602;61;20754;-66
2021/10/10 03:23:13;0.00;0.00;0.62;0.00;0.00;0.62;4.80;4.17;;;26.10;26.20;;;;;;2257547;61;20410;-66
2021/10/10 03:25:58;0.00;0.00;0.62;0.00;0.00;0.62;6.90;5.30;;;26.10;26.20;;;;;;2257437;61;20433;-66
2021/10/10 03:28:42;0.00;0.00;0.62;0.00;0.00;0.62;5.10;4.43;;;26.00;26.20;;;;;;2256956;61;20627;-66
2021/10/10 03:31:27;0.00;0.00;0.62;0.00;0.00;0.62;6.70;4.00;;;26.00;26.20;;;;;;2257786;61;20398;-66
2021/10/10 03:34:13;0.00;0.00;0.62;0.00;0.00;0.62;5.30;4.80;;;26.00;26.20;;;;;;2254387;61;20715;-67
2021/10/10 03:36:57;0.00;0.00;0.62;0.00;0.00;0.62;5.40;4.90;;;26.00;26.20;;;;;;2256669;61;20422;-66
2021/10/10 03:39:43;0.00;0.00;0.62;0.00;0.00;0.62;5.50;4.80;;;25.90;26.10;;;;;;2257853;61;20624;-66
2021/10/10 03:42:27;0.00;0.00;0.62;0.00;0.00;0.62;4.93;4.43;;;25.90;26.10;;;;;;2257405;61;20410;-66
2021/10/10 03:45:12;0.00;0.00;0.62;0.00;0.00;0.62;5.80;4.80;;;25.80;26.10;;;;;;2256991;61;20402;-66
2021/10/10 03:47:56;0.00;0.00;0.62;0.00;0.00;0.62;5.80;5.13;;;25.80;26.10;;;;;;2257600;61;20794;-67
2021/10/10 03:50:42;0.00;0.00;0.62;0.00;0.00;0.62;5.10;4.10;;;25.80;26.10;;;;;;2257282;61;20437;-66
2021/10/10 03:53:38;0.00;0.00;0.62;0.00;0.00;0.62;5.13;4.63;;;25.80;26.10;;;;;;2257589;61;20366;-66
2021/10/10 03:56:22;0.00;0.00;0.62;0.00;0.00;0.62;5.70;5.20;;;25.70;26.10;;;;;;2257296;61;20411;-66
2021/10/10 03:59:07;0.00;0.00;0.62;0.00;0.00;0.62;6.40;4.90;;;25.70;26.10;;;;;;2256713;61;20402;-66
2021/10/10 04:01:51;0.00;0.00;0.62;0.00;0.00;0.62;5.40;4.73;;;25.70;26.10;;;;;;2257635;61;20358;-67
2021/10/10 04:04:36;0.00;0.00;0.62;0.00;0.00;0.62;6.10;5.50;;;25.60;26.60;;;;;;2257469;61;20432;-67
2021/10/10 04:07:23;0.00;0.00;0.62;0.00;0.00;0.62;4.93;4.43;;;25.60;26.00;;;;;;2256743;61;20370;-66
2021/10/10 04:10:08;0.00;0.00;0.62;0.00;0.00;0.62;6.77;5.50;;;25.60;26.10;;;;;;2257589;61;20691;-66
2021/10/10 04:12:53;0.00;0.00;0.62;0.00;0.00;0.62;8.27;5.60;;;25.50;26.00;;;;;;2257212;61;20355;-66
2021/10/10 04:15:38;0.00;0.00;0.62;0.00;0.00;0.62;5.70;5.10;;;25.50;26.10;;;;;;2257622;61;20359;-67
2021/10/10 04:18:22;0.00;0.00;0.62;0.00;0.00;0.62;5.27;4.10;;;25.50;26.10;;;;;;2257302;61;20422;-67
2021/10/10 04:21:07;0.00;0.00;0.62;0.00;0.00;0.62;5.07;4.60;;;25.50;26.10;;;;;;2256752;61;20826;-67
2021/10/10 04:23:53;0.00;0.00;0.62;0.00;0.00;0.62;5.23;4.73;;;25.50;26.10;;;;;;2254413;61;20619;-67
2021/10/10 04:26:37;0.00;0.00;0.62;0.00;0.00;0.62;5.73;5.13;;;25.40;26.10;;;;;;2257563;61;20766;-67
2021/10/10 04:29:22;0.00;0.00;0.62;0.00;0.00;0.62;5.80;5.23;;;25.40;26.10;;;;;;2257555;61;20362;-67
2021/10/10 04:32:06;0.00;0.00;0.62;0.00;0.00;0.62;5.13;4.63;;;25.40;26.10;;;;;;2258309;61;20398;-66
2021/10/10 04:34:51;0.00;0.00;0.62;0.00;0.00;0.62;5.40;4.90;;;25.30;26.00;;;;;;2257628;61;20440;-67
2021/10/10 04:37:36;0.00;0.00;0.62;0.00;0.00;0.62;6.23;5.27;;;25.30;26.00;;;;;;2257880;61;20418;-67
2021/10/10 04:40:22;0.00;0.00;0.62;0.00;0.00;0.62;5.30;4.80;;;25.30;26.00;;;;;;2258130;61;20398;-66
2021/10/10 04:43:07;0.00;0.00;0.62;0.00;0.00;0.62;5.73;5.13;;;25.30;26.00;;;;;;2257426;61;20367;-65
2021/10/10 04:45:52;0.00;0.00;0.62;0.00;0.00;0.62;5.23;4.73;;;25.20;25.90;;;;;;2258243;61;20359;-68
2021/10/10 04:48:36;0.00;0.00;0.62;0.00;0.00;0.62;5.17;4.40;;;25.20;25.90;;;;;;2258033;61;20414;-68
2021/10/10 04:51:21;0.00;0.00;0.62;0.00;0.00;0.62;6.10;5.50;;;25.20;25.90;;;;;;2257454;61;20402;-68
2021/10/10 04:54:05;0.00;0.00;0.62;0.00;0.00;0.62;5.07;4.57;;;25.20;25.90;;;;;;2258256;61;20362;-68
2021/10/10 04:56:51;0.00;0.00;0.62;0.00;0.00;0.62;5.10;4.60;;;25.10;25.90;;;;;;2257454;61;20611;-66
2021/10/10 04:59:35;0.00;0.00;0.62;0.00;0.00;0.62;9.00;4.90;;;25.10;25.90;;;;;;2257870;61;20486;-68
2021/10/10 05:02:23;0.00;0.00;0.62;0.00;0.00;0.62;5.40;4.90;;;25.10;25.90;;;;;;2258078;61;20727;-68
2021/10/10 05:05:09;0.00;0.00;0.62;0.00;0.00;0.62;5.30;4.53;;;25.10;25.90;;;;;;2257294;61;20393;-67
2021/10/10 05:07:54;0.00;0.00;0.62;0.00;0.00;0.62;5.37;4.87;;;25.10;25.90;;;;;;2258091;61;20463;-65
2021/10/10 05:10:38;0.00;0.00;0.62;0.00;0.00;0.62;5.93;4.67;;;25.00;25.90;;;;;;2257862;61;20716;-67
2021/10/10 05:13:24;0.00;0.00;0.62;0.00;0.00;0.62;5.47;4.97;;;25.00;25.90;;;;;;2257209;61;20398;-68
2021/10/10 05:16:09;0.00;0.00;0.62;0.00;0.00;0.62;5.30;4.53;;;25.00;25.90;;;;;;2258099;61;20378;-68
2021/10/10 05:18:53;0.00;0.00;0.62;0.00;0.00;0.62;5.60;4.97;;;25.00;25.90;;;;;;2257815;61;20422;-67
2021/10/10 05:21:38;0.00;0.00;0.62;0.00;0.00;0.62;4.90;4.40;;;24.90;25.80;;;;;;2257831;61;20406;-68
2021/10/10 05:24:23;0.00;0.00;0.62;0.00;0.00;0.62;5.43;4.93;;;24.90;25.80;;;;;;2257848;61;20395;-68
2021/10/10 05:27:07;0.00;0.00;0.62;0.00;0.00;0.62;5.63;4.57;;;24.90;25.80;;;;;;2257117;61;20359;-68
2021/10/10 05:29:53;0.00;0.00;0.62;0.00;0.00;0.62;5.30;4.80;;;24.90;25.90;;;;;;2258163;61;20355;-67
2021/10/10 05:32:37;0.00;0.00;0.62;0.00;0.00;0.62;5.20;4.80;;;24.80;25.80;;;;;;2257891;61;20358;-67
2021/10/10 05:35:22;0.00;0.00;0.62;0.00;0.00;0.62;5.90;4.53;;;24.80;25.80;;;;;;2257135;61;20436;-68
2021/10/10 05:38:06;0.00;0.00;0.62;0.00;0.00;0.62;5.47;4.97;;;24.70;25.70;;;;;;2257884;61;20422;-67
2021/10/10 05:40:51;0.00;0.00;0.62;0.00;0.00;0.62;5.87;4.70;;;24.70;25.70;;;;;;2257913;61;20403;-67
2021/10/10 05:43:35;0.00;0.00;0.62;0.00;0.00;0.62;5.60;4.67;;;24.70;25.70;;;;;;2257585;61;20572;-67
2021/10/10 05:46:21;0.00;0.00;0.62;0.00;0.00;0.62;5.77;5.20;;;24.70;25.70;;;;;;2258140;61;20770;-67
2021/10/10 05:49:06;0.00;0.00;0.62;0.00;0.00;0.62;4.97;4.47;;;24.70;25.70;;;;;;2257490;61;20390;-67
2021/10/10 05:51:51;0.00;0.00;0.62;0.00;0.00;0.62;5.10;4.60;;;24.70;25.70;;;;;;2258001;61;20379;-67
2021/10/10 05:54:37;0.00;0.00;0.62;0.00;0.00;0.62;5.67;5.10;;;24.60;25.70;;;;;;2257944;61;20405;-67
2021/10/10 05:57:28;0.00;0.00;0.62;0.00;0.00;0.62;4.53;4.13;;;24.60;25.70;;;;;;2256909;61;20429;-66
2021/10/10 06:00:15;0.00;0.00;0.62;0.00;0.00;0.62;5.33;4.83;;;24.60;25.70;;;;;;2258061;61;20362;-67
2021/10/10 06:03:06;0.00;0.00;0.62;0.00;0.00;0.62;4.90;4.50;;;24.60;25.70;;;;;;2257800;61;20355;-67
2021/10/10 06:05:51;0.00;0.00;0.62;0.00;0.00;0.62;5.23;4.73;;;24.50;25.60;;;;;;2257514;61;20583;-68
2021/10/10 06:08:35;0.00;0.00;0.62;0.00;0.00;0.62;5.80;5.30;;;24.50;25.60;;;;;;2258027;61;20394;-66
2021/10/10 06:11:20;0.00;0.00;0.62;0.00;0.00;0.62;5.93;4.77;;;24.50;25.60;;;;;;2257434;61;20635;-66
2021/10/10 06:14:05;0.00;0.00;0.62;0.00;0.00;0.62;5.10;4.60;;;24.50;25.60;;;;;;2258058;61;20715;-67
2021/10/10 06:16:50;0.00;0.00;0.62;0.00;0.00;0.62;5.60;4.87;;;24.40;25.60;;;;;;2257619;61;20387;-67
2021/10/10 06:19:36;0.00;0.00;0.62;0.00;0.00;0.62;5.03;4.53;;;24.40;25.50;;;;;;2256982;61;20439;-66
2021/10/10 06:22:21;0.00;0.00;0.62;0.00;0.00;0.62;5.43;4.80;;;24.40;25.60;;;;;;2258122;61;20758;-64
2021/10/10 06:25:06;0.00;0.00;0.62;0.00;0.00;0.62;5.73;5.17;;;24.40;25.60;;;;;;2257630;61;20382;-65
2021/10/10 06:27:51;0.00;0.00;0.62;0.00;0.00;0.62;5.47;4.97;;;24.30;25.50;;;;;;2257110;61;20402;-66
2021/10/10 06:30:35;0.00;0.00;0.62;0.00;0.00;0.62;4.67;4.17;;;24.40;25.60;;;;;;2254936;61;20386;-66
2021/10/10 06:33:20;0.00;0.00;0.62;0.00;0.00;0.62;6.07;4.50;;;24.30;25.50;;;;;;2257232;61;20769;-69
2021/10/10 06:36:06;0.00;0.00;0.62;0.00;0.00;0.62;4.67;4.20;;;24.30;25.60;;;;;;2257807;61;20358;-67
2021/10/10 06:38:51;0.00;0.00;0.62;0.00;0.00;0.62;5.17;4.67;;;24.30;25.60;;;;;;2257612;61;20758;-68
2021/10/10 06:41:35;0.00;0.00;0.62;0.00;0.00;0.62;5.03;4.60;;;24.30;25.60;;;;;;2256858;61;20401;-66
2021/10/10 06:44:20;0.00;0.00;0.62;0.00;0.00;0.62;5.03;4.33;;;24.20;25.50;;;;;;2257903;61;20378;-66
2021/10/10 06:47:05;0.00;0.00;0.62;0.00;0.00;0.62;6.10;5.50;;;24.20;25.60;;;;;;2257505;61;20383;-67
2021/10/10 06:49:49;0.00;0.00;0.62;0.00;0.00;0.62;5.00;4.50;;;24.20;25.60;;;;;;2257132;61;20363;-68
2021/10/10 06:52:35;0.00;0.00;0.62;0.00;0.00;0.62;5.67;4.47;;;24.20;25.60;;;;;;2257842;61;20386;-70
2021/10/10 06:55:20;0.00;0.00;0.62;0.00;0.00;0.62;5.10;4.47;;;24.20;25.60;;;;;;2257068;61;20359;-67
2021/10/10 06:58:04;0.00;0.00;0.62;0.00;0.00;0.62;5.50;5.00;;;24.20;25.60;;;;;;2257511;61;20441;-70
2021/10/10 07:00:49;0.00;0.00;0.62;0.00;0.00;0.62;5.40;4.90;;;24.20;25.60;;;;;;2257607;61;20446;-68
2021/10/10 07:03:34;0.00;0.00;0.62;0.00;0.00;0.62;7.07;5.10;;;24.20;25.60;;;;;;2256044;61;20382;-68
2021/10/10 07:06:19;0.00;0.00;0.62;0.00;0.00;0.62;6.03;5.23;;;24.20;25.60;;;;;;2257415;61;20358;-68
2021/10/10 07:09:05;0.00;0.00;0.62;0.00;0.00;0.62;5.43;4.90;;;24.20;25.60;;;;;;2257362;61;20472;-69
2021/10/10 07:11:49;0.00;0.00;0.62;0.00;0.00;0.62;6.00;5.33;;;24.20;25.70;;;;;;2257031;61;20819;-68
2021/10/10 07:14:34;0.00;0.00;0.62;0.00;0.00;0.62;5.73;5.00;;;24.20;25.60;;;;;;2257792;61;20355;-68
2021/10/10 07:17:18;0.00;0.00;0.62;0.00;0.00;0.62;5.80;4.33;;;24.20;25.60;;;;;;2257410;61;20754;-68
2021/10/10 07:20:12;0.00;0.00;0.62;0.00;0.00;0.62;6.07;4.60;;;24.20;25.60;;;;;;2257467;61;20354;-68
2021/10/10 07:23:25;0.00;0.00;0.62;0.00;0.00;0.62;5.43;4.93;;;24.20;25.60;;;;;;2257542;61;20358;-67
2021/10/10 07:26:11;0.00;0.00;0.62;0.00;0.00;0.62;6.23;5.63;;;24.20;25.50;;;;;;2256745;61;20405;-69
2021/10/10 07:28:56;0.00;0.00;0.62;0.00;0.00;0.62;5.70;5.10;;;24.20;25.60;;;;;;2257263;61;20450;-67
2021/10/10 07:31:40;0.00;0.00;0.62;0.00;0.00;0.62;6.50;5.53;;;24.10;25.50;;;;;;2256985;61;20390;-69
2021/10/10 07:34:25;0.00;0.00;0.62;0.00;0.00;0.62;5.40;4.90;;;24.10;25.50;;;;;;2256954;61;20624;-69
2021/10/10 07:37:09;0.00;0.00;0.62;0.00;0.00;0.62;5.90;5.17;;;24.10;25.50;;;;;;2257598;61;20609;-69
2021/10/10 07:39:54;0.00;0.00;0.62;0.00;0.00;0.62;7.50;5.20;;;24.20;25.60;;;;;;2253931;61;20402;-70
2021/10/10 07:42:40;0.00;0.00;0.62;0.00;0.00;0.62;8.27;5.37;;;24.10;25.50;;;;;;2254380;61;20398;-67
2021/10/10 07:45:26;0.00;0.00;0.62;0.00;0.00;0.62;6.10;5.43;;;24.10;25.40;;;;;;2257472;61;20572;-68
2021/10/10 07:48:10;0.00;0.00;0.62;0.00;0.00;0.62;5.57;5.07;;;24.10;25.50;;;;;;2256809;61;20659;-68
2021/10/10 07:50:55;0.00;0.00;0.62;0.00;0.00;0.62;5.70;4.93;;;24.10;25.50;;;;;;2257648;61;20590;-67
2021/10/10 07:53:39;0.00;0.00;0.62;0.00;0.00;0.62;5.93;4.90;;;24.10;25.50;;;;;;2257375;61;20429;-67
2021/10/10 07:56:24;0.00;0.00;0.62;0.00;0.00;0.62;5.97;5.37;;;24.10;25.50;;;;;;2256762;61;20798;-67
2021/10/10 07:59:10;0.00;0.00;0.62;0.00;0.00;0.62;6.10;5.50;;;24.10;25.50;;;;;;2257577;61;20378;-68
2021/10/10 08:01:55;0.00;0.00;0.62;0.00;0.00;0.62;6.73;5.40;;;24.10;25.60;;;;;;2257371;61;20594;-69
2021/10/10 08:04:39;0.00;0.00;0.62;0.00;0.00;0.62;5.73;5.23;;;24.10;25.60;;;;;;2258090;61;20401;-66
2021/10/10 08:07:24;0.00;0.00;0.62;0.00;0.00;0.62;6.63;5.27;;;24.20;25.60;;;;;;2258018;61;20738;-66
2021/10/10 08:10:09;0.00;0.00;0.62;0.00;0.00;0.62;6.10;5.30;;;24.20;25.60;;;;;;2257572;61;20359;-67
2021/10/10 08:12:53;0.00;0.00;0.62;0.00;0.00;0.62;6.53;5.37;;;24.20;25.60;;;;;;2255202;61;20547;-65
2021/10/10 08:15:39;0.00;0.00;0.62;0.00;0.00;0.62;6.37;5.20;;;24.20;25.60;;;;;;2258135;61;20616;-67
2021/10/10 08:18:24;0.00;0.00;0.62;0.00;0.00;0.62;6.47;4.70;;;24.20;25.60;;;;;;2257396;61;20394;-69
2021/10/10 08:21:09;0.00;0.00;0.62;0.00;0.00;0.62;7.70;4.67;;;24.20;25.60;;;;;;2258419;61;20545;-66
2021/10/10 08:23:53;0.00;0.00;0.62;0.00;0.00;0.62;6.17;5.47;;;24.20;25.50;;;;;;2258162;61;20382;-69
2021/10/10 08:26:38;0.00;0.00;0.62;0.00;0.00;0.62;6.47;5.30;;;24.20;25.50;;;;;;2257969;61;20362;-64
2021/10/10 08:29:22;0.00;0.00;0.62;0.00;0.00;0.62;5.53;4.90;;;24.20;25.50;;;;;;2258123;61;20458;-65
2021/10/10 08:32:08;0.00;0.00;0.62;0.00;0.00;0.62;5.40;4.90;;;24.30;25.50;;;;;;2257427;61;20358;-68
2021/10/10 08:34:53;0.00;0.00;0.62;0.00;0.00;0.62;6.50;5.70;;;24.30;25.40;;;;;;2258263;61;20700;-68
2021/10/10 08:37:37;0.00;0.00;0.62;0.00;0.00;0.62;6.63;5.03;;;24.30;25.40;;;;;;2257942;61;20414;-65
2021/10/10 08:40:22;0.00;0.00;0.62;0.00;0.00;0.62;6.67;5.87;;;24.30;25.40;;;;;;2257361;61;20366;-63
2021/10/10 08:43:12;0.00;0.00;0.62;0.00;0.00;0.62;4.70;4.30;;;24.30;25.40;;;;;;2258312;61;20439;-64
2021/10/10 08:46:00;0.00;0.00;0.62;0.00;0.00;0.62;5.00;4.60;;;24.30;25.40;;;;;;2257932;61;20374;-64
2021/10/10 08:48:46;0.00;0.00;0.62;0.00;0.00;0.62;5.20;4.57;;;24.30;25.50;;;;;;2257867;61;20402;-66
2021/10/10 08:51:38;0.00;0.00;0.62;0.00;0.00;0.62;6.40;4.80;;;24.30;25.60;;;;;;2258047;61;20359;-64
2021/10/10 08:54:23;0.00;0.00;0.62;0.00;0.00;0.62;5.00;4.47;;;24.40;25.70;;;;;;2257336;61;20355;-65
2021/10/10 08:57:09;0.00;0.00;0.62;0.00;0.00;0.62;4.63;4.20;;;24.40;25.70;;;;;;2258172;61;20457;-69
2021/10/10 09:00:00;0.00;0.00;0.62;0.00;0.00;0.62;5.97;4.23;;;24.50;25.80;;;;;;2254780;61;20347;-67
2021/10/10 09:02:47;0.00;0.00;0.62;0.00;0.00;0.62;4.50;3.93;;;24.50;25.80;;;;;;2254262;61;20378;-66
2021/10/10 09:05:34;0.00;0.00;0.62;0.00;0.00;0.62;5.57;4.50;;;24.50;25.90;;;;;;2258321;61;20363;-68
2021/10/10 09:08:18;0.00;0.00;0.62;0.00;0.00;0.62;4.60;3.80;;;24.50;25.90;;;;;;2251919;61;20506;-68
2021/10/10 09:11:03;0.00;0.00;0.62;0.00;0.00;0.62;4.60;3.60;;;24.60;26.00;;;;;;2257948;61;20609;-67
2021/10/10 09:14:01;0.00;0.00;0.62;0.00;0.00;0.62;4.90;4.40;;;24.60;26.00;;;;;;2258037;61;20394;-69
2021/10/10 09:16:45;0.00;0.00;0.62;0.00;0.00;0.62;5.40;4.10;;;24.60;26.00;;;;;;2257147;61;20406;-67
2021/10/10 09:19:30;0.00;0.00;0.62;0.00;0.00;0.62;4.83;3.77;;;24.70;26.10;;;;;;2258189;61;20370;-66
2021/10/10 09:22:17;0.00;0.00;0.62;0.00;0.00;0.62;3.97;3.40;;;24.70;26.10;;;;;;2257851;61;20680;-69
2021/10/10 09:25:09;0.00;0.00;0.62;0.00;0.00;0.62;5.90;4.20;;;24.70;26.10;;;;;;2257264;61;20417;-67
2021/10/10 09:27:54;0.00;0.00;0.62;0.00;0.00;0.62;5.50;3.47;;;24.80;26.20;;;;;;2258111;61;20591;-70
2021/10/10 09:30:48;0.00;0.00;0.62;0.00;0.00;0.62;4.90;4.40;;;24.80;26.20;;;;;;2257456;61;20414;-70
2021/10/10 09:33:43;0.00;0.00;0.62;0.00;0.00;0.62;3.97;3.67;;;24.90;26.30;;;;;;2254681;61;20589;-69
2021/10/10 09:36:29;0.00;0.00;0.62;0.00;0.00;0.62;4.73;4.30;;;24.90;26.30;;;;;;2257685;61;20614;-68
2021/10/10 09:39:16;0.00;0.00;0.62;0.00;0.00;0.62;5.37;4.07;;;24.90;26.30;;;;;;2257107;61;20402;-68
2021/10/10 09:42:03;0.00;0.00;0.62;0.00;0.00;0.62;4.20;3.80;;;25.00;26.40;;;;;;2258237;61;20381;-67
2021/10/10 09:44:49;0.00;0.00;0.62;0.00;0.00;0.62;7.40;3.70;;;25.00;26.40;;;;;;2257800;61;20403;-70
2021/10/10 09:47:47;0.00;0.00;0.62;0.00;0.00;0.62;4.70;3.97;;;25.00;26.40;;;;;;2257084;61;20391;-69
2021/10/10 09:50:33;0.00;0.00;0.62;0.00;0.00;0.62;3.97;3.30;;;25.10;26.40;;;;;;2258095;61;20614;-71
2021/10/10 09:53:28;0.00;0.00;0.62;0.00;0.00;0.62;4.90;4.50;;;25.10;26.40;;;;;;2257544;61;20354;-70
2021/10/10 09:56:14;0.00;0.00;0.62;0.00;0.00;0.62;3.50;3.20;;;25.10;26.40;;;;;;2257946;61;20452;-68
2021/10/10 09:58:58;0.00;0.00;0.62;0.00;0.00;0.62;5.33;3.67;;;25.20;26.40;;;;;;2257702;61;20430;-67
2021/10/10 10:01:43;0.00;0.00;0.62;0.00;0.00;0.62;3.30;3.00;;;25.20;26.90;;;;;;2257212;61;20427;-68
2021/10/10 10:04:43;0.00;0.00;0.62;0.00;0.00;0.62;3.23;2.93;;;25.20;26.40;;;;;;2258008;61;20443;-70
2021/10/10 10:07:29;0.00;0.00;0.62;0.00;0.00;0.62;3.63;3.33;;;25.30;26.40;;;;;;2257598;61;20378;-66
2021/10/10 10:10:13;0.00;0.00;0.62;0.00;0.00;0.62;4.50;3.20;;;25.30;26.40;;;;;;2257817;61;20379;-68
2021/10/10 10:13:01;0.00;0.00;0.62;0.00;0.00;0.62;4.00;3.60;;;25.40;26.50;;;;;;2257662;61;20412;-69
2021/10/10 10:15:46;0.00;0.00;0.62;0.00;0.00;0.62;3.47;3.17;;;25.40;26.50;;;;;;2257184;61;20371;-65
2021/10/10 10:18:31;0.00;0.00;0.62;0.00;0.00;0.62;3.20;2.90;;;25.40;26.40;;;;;;2257908;61;20394;-68
2021/10/10 10:21:15;0.00;0.00;0.62;0.00;0.00;0.62;3.30;3.00;;;25.50;26.40;;;;;;2257719;61;20742;-70
2021/10/10 10:24:02;0.00;0.00;0.62;0.00;0.00;0.62;4.20;3.50;;;25.50;26.40;;;;;;2256997;61;20454;-69
2021/10/10 10:26:47;0.00;0.00;0.62;0.00;0.00;0.62;3.20;2.63;;;25.50;26.40;;;;;;2257896;61;20359;-69
2021/10/10 10:29:33;0.00;0.00;0.62;0.00;0.00;0.62;4.23;3.00;;;25.50;26.40;;;;;;2257738;61;20402;-68
2021/10/10 10:32:18;0.00;0.00;0.62;0.00;0.00;0.62;4.03;3.60;;;25.60;26.50;;;;;;2257717;61;20723;-66
2021/10/10 10:35:11;0.00;0.00;0.62;0.00;0.00;0.62;3.00;2.43;;;25.60;26.50;;;;;;2257780;61;20615;-69
2021/10/10 10:37:56;0.00;0.00;0.62;0.00;0.00;0.62;3.30;2.90;;;25.60;26.40;;;;;;2256984;61;20391;-70
2021/10/10 10:40:41;0.00;0.00;0.62;0.00;0.00;0.62;4.87;2.83;;;25.70;26.50;;;;;;2257863;61;20358;-69
2021/10/10 10:43:35;0.00;0.00;0.62;0.00;0.00;0.62;3.20;2.90;;;25.70;26.40;;;;;;2257682;61;20363;-67
2021/10/10 10:46:21;0.00;0.00;0.62;0.00;0.00;0.62;2.90;2.53;;;25.70;26.50;;;;;;2257016;61;20751;-70
2021/10/10 10:49:05;0.00;0.00;0.62;0.00;0.00;0.62;3.30;2.80;;;25.70;26.40;;;;;;2258046;61;20398;-67
2021/10/10 10:52:20;0.00;0.00;0.62;0.00;0.00;0.62;2.60;2.40;;;25.70;26.40;;;;;;2257654;61;20391;-68
2021/10/10 10:55:20;0.00;0.00;0.62;0.00;0.00;0.62;3.37;3.07;;;25.80;26.50;;;;;;2257668;61;20431;-67